createdAt,value
2019-02-18T00:01:52.775Z,27.30
2019-02-18T00:04:20.355Z,26.00
2019-02-18T00:06:47.823Z,23.87
2019-02-18T00:09:15.310Z,28.00
2019-02-18T00:11:42.805Z,26.07
2019-02-18T00:14:10.269Z,28.03
2019-02-18T00:16:37.851Z,23.27
2019-02-18T00:19:05.254Z,23.47
2019-02-18T00:21:32.725Z,26.83
2019-02-18T00:24:00.182Z,19.87
2019-02-18T00:26:27.563Z,23.93
2019-02-18T00:28:55.083Z,23.17
2019-02-18T00:31:22.718Z,23.30
2019-02-18T00:33:50.326Z,22.23
2019-02-18T00:36:17.795Z,22.00
2019-02-18T00:38:45.312Z,24.17
2019-02-18T00:41:12.814Z,21.33
2019-02-18T00:43:40.295Z,21.77
2019-02-18T00:46:07.770Z,21.60
2019-02-18T00:48:35.194Z,19.20
2019-02-18T00:51:02.714Z,20.97
2019-02-18T00:53:30.122Z,22.90
2019-02-18T00:55:57.606Z,24.97
2019-02-18T00:58:25.115Z,22.07
2019-02-18T01:00:52.579Z,22.30
2019-02-18T01:03:20.258Z,23.97
2019-02-18T01:05:47.804Z,24.27
2019-02-18T01:08:15.194Z,26.90
2019-02-18T01:10:42.650Z,27.03
2019-02-18T01:13:10.117Z,23.57
2019-02-18T01:15:37.498Z,21.93
2019-02-18T01:18:05.073Z,27.90
2019-02-18T01:20:32.544Z,26.43
2019-02-18T01:22:59.938Z,22.63
2019-02-18T01:25:27.429Z,22.93
2019-02-18T01:27:54.985Z,15.07
2019-02-18T01:30:22.429Z,23.53
2019-02-18T01:32:50.079Z,21.50
2019-02-18T01:35:17.584Z,29.93
2019-02-18T01:37:46.285Z,21.67
2019-02-18T01:40:14.087Z,24.10
2019-02-18T01:42:41.455Z,33.60
2019-02-18T01:45:10.338Z,30.97
2019-02-18T01:47:37.893Z,37.53
2019-02-18T01:50:07.454Z,35.07
2019-02-18T01:52:34.943Z,36.37
2019-02-18T01:55:02.489Z,37.10
2019-02-18T01:57:29.907Z,41.80
2019-02-18T01:59:57.344Z,37.73
2019-02-18T02:02:24.726Z,39.97
2019-02-18T02:04:52.482Z,36.30
2019-02-18T02:07:20.028Z,46.90
2019-02-18T02:09:47.460Z,45.93
2019-02-18T02:12:14.857Z,66.80
2019-02-18T02:14:42.308Z,78.60
2019-02-18T02:17:09.730Z,64.80
2019-02-18T02:19:37.099Z,61.87
2019-02-18T02:22:04.581Z,61.23
2019-02-18T02:24:32.013Z,53.93
2019-02-18T02:26:59.409Z,71.80
2019-02-18T02:29:26.829Z,77.27
2019-02-18T02:31:54.372Z,80.27
2019-02-18T02:34:21.744Z,59.37
2019-02-18T02:36:49.385Z,88.30
2019-02-18T02:39:16.930Z,84.60
2019-02-18T02:41:44.318Z,69.27
2019-02-18T02:44:11.800Z,72.90
2019-02-18T02:46:39.261Z,75.47
2019-02-18T02:49:06.593Z,79.50
2019-02-18T02:51:34.059Z,66.13
2019-02-18T02:54:01.517Z,70.87
2019-02-18T02:56:29.039Z,65.17
2019-02-18T02:58:56.523Z,77.90
2019-02-18T03:01:23.988Z,82.13
2019-02-18T03:03:51.389Z,73.77
2019-02-18T03:06:18.968Z,73.50
2019-02-18T03:08:46.400Z,77.00
2019-02-18T03:11:13.860Z,71.30
2019-02-18T03:13:41.311Z,71.90
2019-02-18T03:16:08.731Z,71.30
2019-02-18T03:18:36.282Z,89.23
2019-02-18T03:21:03.730Z,100.33
2019-02-18T03:23:31.192Z,97.50
2019-02-18T03:25:58.613Z,89.93
2019-02-18T03:29:10.542Z,74.27
2019-02-18T03:31:37.982Z,74.10
2019-02-18T03:34:12.485Z,79.67
2019-02-18T03:36:39.914Z,69.00
2019-02-18T03:39:07.372Z,72.47
2019-02-18T03:41:34.902Z,70.33
2019-02-18T03:44:02.276Z,69.17
2019-02-18T03:46:29.695Z,69.73
2019-02-18T03:48:57.105Z,60.23
2019-02-18T03:51:24.468Z,64.37
2019-02-18T03:53:52.001Z,62.03
2019-02-18T03:56:19.563Z,61.43
2019-02-18T03:58:46.921Z,61.57
2019-02-18T04:01:14.354Z,68.17
2019-02-18T04:03:41.782Z,58.03
2019-02-18T04:06:09.206Z,58.57
2019-02-18T04:08:42.988Z,64.33
2019-02-18T04:11:06.171Z,62.17
2019-02-18T04:13:33.568Z,58.13
2019-02-18T04:16:00.998Z,52.63
2019-02-18T04:18:28.534Z,52.70
2019-02-18T04:20:55.890Z,61.30
2019-02-18T04:23:23.354Z,57.73
2019-02-18T04:25:50.781Z,64.53
2019-02-18T04:28:18.220Z,59.40
2019-02-18T04:30:45.663Z,69.83
2019-02-18T04:33:13.152Z,62.77
2019-02-18T04:35:40.544Z,57.90
2019-02-18T04:38:08.129Z,46.40
2019-02-18T04:40:35.595Z,65.07
2019-02-18T04:43:03.290Z,64.67
2019-02-18T04:45:30.759Z,61.20
2019-02-18T04:47:58.208Z,65.60
2019-02-18T04:50:25.641Z,69.27
2019-02-18T04:52:53.067Z,56.43
2019-02-18T04:55:20.500Z,63.30
2019-02-18T04:57:47.882Z,72.23
2019-02-18T05:00:15.348Z,68.07
2019-02-18T05:02:42.808Z,73.73
2019-02-18T05:05:10.251Z,71.10
2019-02-18T05:07:37.802Z,63.63
2019-02-18T05:10:06.421Z,71.47
2019-02-18T05:12:33.918Z,68.40
2019-02-18T05:15:01.340Z,68.83
2019-02-18T05:17:28.772Z,68.90
2019-02-18T05:19:56.143Z,55.50
2019-02-18T05:22:23.595Z,71.07
2019-02-18T05:24:51.036Z,84.57
2019-02-18T05:27:18.489Z,83.47
2019-02-18T05:29:46.001Z,80.47
2019-02-18T05:32:13.507Z,73.57
2019-02-18T05:34:41.424Z,79.80
2019-02-18T05:37:08.853Z,82.27
2019-02-18T05:39:36.338Z,82.07
2019-02-18T05:42:03.806Z,101.20
2019-02-18T05:44:31.279Z,90.90
2019-02-18T05:46:58.724Z,80.43
2019-02-18T05:49:26.829Z,63.60
2019-02-18T05:51:54.922Z,68.57
2019-02-18T05:54:22.347Z,84.83
2019-02-18T05:56:49.808Z,74.03
2019-02-18T05:59:17.196Z,88.07
2019-02-18T06:01:44.696Z,69.10
2019-02-18T06:04:12.130Z,61.50
2019-02-18T06:06:39.543Z,59.23
2019-02-18T06:09:06.983Z,62.00
2019-02-18T06:11:34.537Z,61.30
2019-02-18T06:14:01.981Z,53.83
2019-02-18T06:16:29.412Z,65.47
2019-02-18T06:18:56.839Z,65.57
2019-02-18T06:21:24.282Z,59.40
2019-02-18T06:23:51.699Z,63.07
2019-02-18T06:26:19.131Z,59.00
2019-02-18T06:28:46.588Z,44.00
2019-02-18T06:31:14.070Z,57.27
2019-02-18T06:33:41.525Z,70.13
2019-02-18T06:36:08.953Z,76.60
2019-02-18T06:38:36.304Z,64.07
2019-02-18T06:41:03.838Z,60.30
2019-02-18T06:43:31.664Z,65.90
2019-02-18T06:46:08.111Z,69.83
2019-02-18T06:48:37.797Z,65.17
2019-02-18T06:51:05.167Z,76.50
2019-02-18T06:53:32.608Z,66.33
2019-02-18T06:56:00.096Z,60.30
2019-02-18T06:58:45.750Z,58.37
2019-02-18T07:01:21.649Z,63.40
2019-02-18T07:04:20.391Z,63.73
2019-02-18T07:07:19.651Z,61.33
2019-02-18T07:10:09.099Z,72.87
2019-02-18T07:12:48.802Z,69.40
2019-02-18T07:15:16.290Z,67.07
2019-02-18T07:17:43.762Z,81.10
2019-02-18T07:20:11.158Z,76.13
2019-02-18T07:22:38.607Z,69.63
2019-02-18T07:25:07.732Z,71.57
2019-02-18T07:27:35.134Z,72.20
2019-02-18T07:30:02.672Z,60.10
2019-02-18T07:32:30.122Z,61.67
2019-02-18T07:34:57.603Z,68.80
2019-02-18T07:37:25.051Z,73.40
2019-02-18T07:40:00.980Z,58.27
2019-02-18T07:42:21.777Z,65.60
2019-02-18T07:44:49.219Z,58.77
2019-02-18T07:47:16.625Z,55.80
2019-02-18T07:49:44.085Z,68.43
2019-02-18T07:52:11.532Z,57.30
2019-02-18T07:54:38.964Z,67.97
2019-02-18T07:57:06.435Z,55.77
2019-02-18T07:59:33.897Z,58.77
2019-02-18T08:02:01.272Z,58.37
2019-02-18T08:04:28.683Z,60.70
2019-02-18T08:06:56.140Z,54.77
2019-02-18T08:09:23.607Z,58.87
2019-02-18T08:11:51.137Z,61.73
2019-02-18T08:14:18.706Z,62.47
2019-02-18T08:16:46.150Z,63.83
2019-02-18T08:19:15.559Z,65.10
2019-02-18T08:21:44.375Z,54.53
2019-02-18T08:24:11.797Z,60.43
2019-02-18T08:26:39.331Z,52.07
2019-02-18T08:29:06.813Z,56.93
2019-02-18T08:31:34.330Z,49.10
2019-02-18T08:34:01.792Z,53.90
2019-02-18T08:36:29.243Z,64.00
2019-02-18T08:38:56.685Z,70.13
2019-02-18T08:41:24.116Z,63.53
2019-02-18T08:43:51.536Z,57.83
2019-02-18T08:46:18.997Z,48.50
2019-02-18T08:48:46.450Z,63.73
2019-02-18T08:51:13.936Z,50.40
2019-02-18T08:53:41.365Z,50.67
2019-02-18T08:56:08.766Z,48.53
2019-02-18T08:58:36.201Z,49.57
2019-02-18T09:01:03.617Z,43.73
2019-02-18T09:03:31.076Z,53.83
2019-02-18T09:05:58.506Z,52.17
2019-02-18T09:08:25.938Z,42.80
2019-02-18T09:10:53.815Z,49.80
2019-02-18T09:13:21.214Z,46.23
2019-02-18T09:15:59.440Z,47.80
2019-02-18T09:18:18.087Z,48.17
2019-02-18T09:20:45.550Z,52.73
2019-02-18T09:23:31.180Z,49.33
2019-02-18T09:26:00.390Z,52.77
2019-02-18T09:28:27.906Z,47.83
2019-02-18T09:30:56.490Z,48.37
2019-02-18T09:33:23.964Z,48.87
2019-02-18T09:35:51.628Z,47.97
2019-02-18T09:38:24.831Z,47.03
2019-02-18T09:40:51.553Z,45.50
2019-02-18T09:43:18.208Z,50.87
2019-02-18T09:45:45.669Z,41.93
2019-02-18T09:48:13.193Z,40.33
2019-02-18T09:50:40.614Z,53.53
2019-02-18T09:53:08.178Z,45.03
2019-02-18T09:55:35.684Z,47.67
2019-02-18T09:58:03.178Z,46.07
2019-02-18T10:00:30.647Z,42.47
2019-02-18T10:02:58.109Z,52.87
2019-02-18T10:05:25.555Z,44.20
2019-02-18T10:07:52.949Z,47.73
2019-02-18T10:10:20.371Z,42.50
2019-02-18T10:12:47.797Z,45.13
2019-02-18T10:15:15.261Z,43.60
2019-02-18T10:17:42.759Z,34.43
2019-02-18T10:20:10.419Z,47.53
2019-02-18T10:22:37.873Z,38.87
2019-02-18T10:25:06.405Z,46.77
2019-02-18T10:27:33.796Z,38.17
2019-02-18T10:30:01.382Z,45.80
2019-02-18T10:32:28.912Z,53.67
2019-02-18T10:34:56.398Z,40.30
2019-02-18T10:37:23.860Z,41.70
2019-02-18T10:39:51.341Z,43.87
2019-02-18T10:42:18.746Z,39.50
2019-02-18T10:44:46.573Z,40.00
2019-02-18T10:47:14.303Z,44.07
2019-02-18T10:49:41.753Z,40.43
2019-02-18T10:52:09.204Z,35.87
2019-02-18T10:54:36.695Z,46.03
2019-02-18T10:57:04.292Z,40.93
2019-02-18T10:59:31.743Z,38.40
2019-02-18T11:01:59.157Z,41.93
2019-02-18T11:04:26.938Z,42.07
2019-02-18T11:06:54.355Z,41.93
2019-02-18T11:09:21.782Z,43.50
2019-02-18T11:11:49.280Z,41.20
2019-02-18T11:14:16.801Z,40.60
2019-02-18T11:16:44.378Z,49.50
2019-02-18T11:19:11.795Z,45.87
2019-02-18T11:21:39.319Z,48.07
2019-02-18T11:24:06.767Z,49.77
2019-02-18T11:26:34.149Z,49.40
2019-02-18T11:29:01.672Z,48.73
2019-02-18T11:31:29.562Z,46.17
2019-02-18T11:33:57.064Z,52.00
2019-02-18T11:36:24.498Z,39.43
2019-02-18T11:38:51.987Z,36.83
2019-02-18T11:41:27.120Z,42.30
2019-02-18T11:43:48.835Z,42.73
2019-02-18T11:46:16.618Z,40.93
2019-02-18T11:48:44.059Z,44.63
2019-02-18T11:51:11.519Z,48.13
2019-02-18T11:53:38.953Z,46.13
2019-02-18T11:56:06.411Z,43.87
2019-02-18T11:58:33.848Z,44.57
2019-02-18T12:01:01.209Z,44.90
2019-02-18T12:03:29.042Z,44.93
2019-02-18T12:05:56.488Z,41.47
2019-02-18T12:08:23.974Z,47.10
2019-02-18T12:10:51.410Z,46.10
2019-02-18T12:13:18.894Z,47.17
2019-02-18T12:15:46.342Z,43.43
2019-02-18T12:18:13.979Z,42.27
2019-02-18T12:20:41.489Z,46.60
2019-02-18T12:23:08.869Z,43.23
2019-02-18T12:25:36.320Z,41.13
2019-02-18T12:28:03.844Z,46.27
2019-02-18T12:30:32.533Z,44.63
2019-02-18T12:33:00.261Z,40.57
2019-02-18T12:35:32.780Z,42.50
2019-02-18T12:37:57.118Z,43.00
2019-02-18T12:40:24.622Z,41.80
2019-02-18T12:42:52.017Z,39.67
2019-02-18T12:45:19.488Z,44.20
2019-02-18T12:47:46.957Z,44.30
2019-02-18T12:50:14.486Z,40.37
2019-02-18T12:52:41.842Z,40.40
2019-02-18T12:55:09.805Z,43.37
2019-02-18T12:57:37.825Z,37.73
2019-02-18T13:00:06.228Z,43.77
2019-02-18T13:02:43.710Z,39.87
2019-02-18T13:05:04.895Z,39.93
2019-02-18T13:07:32.338Z,43.60
2019-02-18T13:09:59.792Z,42.40
2019-02-18T13:12:27.197Z,41.43
2019-02-18T13:14:54.678Z,45.37
2019-02-18T13:17:22.598Z,43.93
2019-02-18T13:19:50.156Z,42.07
2019-02-18T13:22:17.598Z,34.33
2019-02-18T13:24:45.091Z,39.73
2019-02-18T13:27:12.594Z,38.17
2019-02-18T13:29:40.115Z,44.07
2019-02-18T13:32:07.867Z,39.30
2019-02-18T13:34:35.422Z,41.07
2019-02-18T13:37:03.550Z,39.40
2019-02-18T13:39:30.952Z,30.00
2019-02-18T13:41:58.454Z,35.67
2019-02-18T13:44:25.906Z,34.30
2019-02-18T13:46:53.357Z,35.37
2019-02-18T13:49:20.811Z,30.60
2019-02-18T13:51:56.241Z,35.97
2019-02-18T13:54:17.710Z,36.43
2019-02-18T13:56:45.336Z,30.53
2019-02-18T13:59:12.814Z,30.27
2019-02-18T14:01:40.245Z,31.73
2019-02-18T14:04:07.788Z,27.90
2019-02-18T14:06:35.925Z,36.73
2019-02-18T14:09:04.847Z,32.60
2019-02-18T14:11:32.418Z,30.87
2019-02-18T14:13:59.865Z,29.67
2019-02-18T14:16:27.405Z,34.23
2019-02-18T14:18:54.898Z,32.67
2019-02-18T14:21:22.360Z,31.23
2019-02-18T14:23:49.841Z,39.53
2019-02-18T14:26:17.450Z,38.33
2019-02-18T14:28:45.020Z,34.63
2019-02-18T14:31:12.668Z,44.20
2019-02-18T14:33:40.341Z,30.87
2019-02-18T14:36:08.086Z,32.77
2019-02-18T14:38:35.752Z,32.53
2019-02-18T14:41:03.348Z,30.50
2019-02-18T14:43:30.838Z,32.90
2019-02-18T14:45:58.274Z,25.23
2019-02-18T14:48:25.829Z,29.90
2019-02-18T14:50:56.611Z,32.60
2019-02-18T14:53:23.116Z,34.30
2019-02-18T14:55:50.809Z,39.63
2019-02-18T14:58:18.387Z,44.10
2019-02-18T15:00:46.356Z,33.80
2019-02-18T15:03:15.024Z,33.63
2019-02-18T15:05:42.588Z,49.37
2019-02-18T15:08:10.250Z,43.70
2019-02-18T15:10:44.757Z,46.00
2019-02-18T15:13:12.508Z,37.03
2019-02-18T15:15:40.007Z,47.20
2019-02-18T15:18:07.466Z,33.53
2019-02-18T15:20:41.314Z,41.77
2019-02-18T15:23:08.925Z,38.97
2019-02-18T15:25:36.385Z,37.07
2019-02-18T15:28:03.840Z,35.07
2019-02-18T15:30:31.972Z,45.23
2019-02-18T15:32:59.958Z,42.90
2019-02-18T15:35:27.639Z,34.37
2019-02-18T15:37:55.582Z,47.07
2019-02-18T15:40:23.192Z,59.07
2019-02-18T15:42:50.766Z,136.77
2019-02-18T15:45:19.947Z,44.00
2019-02-18T15:47:47.725Z,42.17
2019-02-18T15:50:15.178Z,46.33
2019-02-18T15:52:42.735Z,41.63
2019-02-18T15:55:11.673Z,50.43
2019-02-18T15:57:39.219Z,49.17
2019-02-18T16:00:09.957Z,55.77
2019-02-18T16:02:37.479Z,45.73
2019-02-18T16:05:05.636Z,45.93
2019-02-18T16:07:33.322Z,33.83
2019-02-18T16:10:01.138Z,49.83
2019-02-18T16:12:28.671Z,34.60
2019-02-18T16:14:56.152Z,35.70
2019-02-18T16:17:23.621Z,44.57
2019-02-18T16:19:51.109Z,61.13
2019-02-18T16:22:19.019Z,50.63
2019-02-18T16:24:46.488Z,52.07
2019-02-18T16:27:13.957Z,54.13
2019-02-18T16:29:41.489Z,54.33
2019-02-18T16:32:09.046Z,54.17
2019-02-18T16:34:36.556Z,70.27
2019-02-18T16:37:04.444Z,64.43
2019-02-18T16:39:32.053Z,61.27
2019-02-18T16:41:59.973Z,58.33
2019-02-18T16:44:27.541Z,54.57
2019-02-18T16:46:55.052Z,61.73
2019-02-18T16:49:22.496Z,50.67
2019-02-18T16:51:50.153Z,52.93
2019-02-18T16:54:17.765Z,39.27
2019-02-18T16:56:45.645Z,47.03
2019-02-18T16:59:13.081Z,47.63
2019-02-18T17:01:40.621Z,43.70
2019-02-18T17:04:08.122Z,44.77
2019-02-18T17:06:35.673Z,38.77
2019-02-18T17:09:09.835Z,35.47
2019-02-18T17:11:37.792Z,36.40
2019-02-18T17:14:05.268Z,29.30
2019-02-18T17:16:41.570Z,28.13
2019-02-18T17:19:09.154Z,27.67
2019-02-18T17:21:36.633Z,24.80
2019-02-18T17:24:04.314Z,26.87
2019-02-18T17:26:32.206Z,21.27
2019-02-18T17:28:59.734Z,23.90
2019-02-18T17:31:27.158Z,25.10
2019-02-18T17:33:54.804Z,24.00
2019-02-18T17:36:22.373Z,23.13
2019-02-18T17:38:49.998Z,26.77
2019-02-18T17:41:17.498Z,23.00
2019-02-18T17:43:44.992Z,26.20
2019-02-18T17:46:12.409Z,26.30
2019-02-18T17:48:39.933Z,21.60
2019-02-18T17:51:07.309Z,21.30
2019-02-18T17:53:34.760Z,21.13
2019-02-18T17:56:02.776Z,23.27
2019-02-18T17:58:30.273Z,24.60
2019-02-18T18:00:58.757Z,29.03
2019-02-18T18:03:26.770Z,30.73
2019-02-18T18:05:54.252Z,34.27
2019-02-18T18:08:21.993Z,37.73
2019-02-18T18:10:49.534Z,40.30
2019-02-18T18:13:24.770Z,35.63
2019-02-18T18:15:46.352Z,41.23
2019-02-18T18:18:13.864Z,73.23
2019-02-18T18:20:42.233Z,38.20
2019-02-18T18:23:10.009Z,36.10
2019-02-18T18:25:38.325Z,44.37
2019-02-18T18:28:08.001Z,37.30
2019-02-18T18:30:36.305Z,35.63
2019-02-18T18:33:03.753Z,24.23
2019-02-18T18:35:35.696Z,20.20
2019-02-18T18:38:03.457Z,20.70
2019-02-18T18:40:31.238Z,22.00
2019-02-18T18:42:58.761Z,17.80
2019-02-18T18:45:26.247Z,21.07
2019-02-18T18:47:54.066Z,19.30
2019-02-18T18:50:22.770Z,34.67
2019-02-18T18:52:50.204Z,37.27
2019-02-18T18:55:18.166Z,50.07
2019-02-18T18:57:45.701Z,45.67
2019-02-18T19:00:17.646Z,43.73
2019-02-18T19:02:46.157Z,29.37
2019-02-18T19:05:13.779Z,46.63
2019-02-18T19:07:41.243Z,37.33
2019-02-18T19:10:09.107Z,24.70
2019-02-18T19:12:36.724Z,40.37
2019-02-18T19:15:04.442Z,28.50
2019-02-18T19:18:11.370Z,20.37
2019-02-18T19:21:13.181Z,19.80
2019-02-18T19:23:40.923Z,17.80
2019-02-18T19:26:08.361Z,16.60
2019-02-18T19:28:35.744Z,20.40
2019-02-18T19:31:03.274Z,20.60
2019-02-18T19:33:31.221Z,25.37
2019-02-18T19:35:58.751Z,21.37
2019-02-18T19:38:26.729Z,24.97
2019-02-18T19:40:54.123Z,22.60
2019-02-18T19:43:21.916Z,21.80
2019-02-18T19:45:50.099Z,23.17
2019-02-18T19:48:17.706Z,22.87
2019-02-18T19:50:45.253Z,18.70
2019-02-18T19:53:12.853Z,18.53
2019-02-18T19:55:40.679Z,16.17
2019-02-18T19:58:08.333Z,16.13
2019-02-18T20:00:35.809Z,19.37
2019-02-18T20:03:03.288Z,18.23
2019-02-18T20:05:30.778Z,18.20
2019-02-18T20:07:58.313Z,20.23
2019-02-18T20:10:25.788Z,19.63
2019-02-18T20:12:53.578Z,15.87
2019-02-18T20:15:21.050Z,20.93
2019-02-18T20:17:48.620Z,20.70
2019-02-18T20:20:16.256Z,26.57
2019-02-18T20:22:43.705Z,20.13
2019-02-18T20:25:11.292Z,21.23
2019-02-18T20:27:38.742Z,21.60
2019-02-18T20:30:07.120Z,21.87
2019-02-18T20:32:35.943Z,17.03
2019-02-18T20:35:04.119Z,18.63
2019-02-18T20:37:32.213Z,17.23
2019-02-18T20:39:59.614Z,16.90
2019-02-18T20:42:27.064Z,13.87
2019-02-18T20:44:55.209Z,17.63
2019-02-18T20:47:22.695Z,15.83
2019-02-18T20:49:50.106Z,17.43
2019-02-18T20:52:17.597Z,15.00
2019-02-18T20:54:45.003Z,15.17
2019-02-18T20:57:12.460Z,17.30
2019-02-18T20:59:40.476Z,15.47
2019-02-18T21:02:08.120Z,16.80
2019-02-18T21:04:35.564Z,20.83
2019-02-18T21:07:03.721Z,14.37
2019-02-18T21:09:31.145Z,18.53
2019-02-18T21:11:58.591Z,14.23
2019-02-18T21:14:26.052Z,12.73
2019-02-18T21:16:53.533Z,15.77
2019-02-18T21:19:21.127Z,18.53
2019-02-18T21:21:48.594Z,16.80
2019-02-18T21:24:16.118Z,17.40
2019-02-18T21:26:43.555Z,15.37
2019-02-18T21:29:11.033Z,15.50
2019-02-18T21:31:38.470Z,16.33
2019-02-18T21:34:05.954Z,18.90
2019-02-18T21:36:33.935Z,18.20
2019-02-18T21:39:01.433Z,18.23
2019-02-18T21:41:28.838Z,19.73
2019-02-18T21:43:56.314Z,21.63
2019-02-18T21:46:23.906Z,17.60
2019-02-18T21:48:51.546Z,17.53
2019-02-18T21:51:19.028Z,17.60
2019-02-18T21:53:46.911Z,21.57
2019-02-18T21:56:14.440Z,21.47
2019-02-18T21:58:42.082Z,23.73
2019-02-18T22:01:09.718Z,21.80
2019-02-18T22:03:37.177Z,22.40
2019-02-18T22:06:04.621Z,23.73
2019-02-18T22:08:32.074Z,19.47
2019-02-18T22:10:59.917Z,21.83
2019-02-18T22:13:27.448Z,24.93
2019-02-18T22:15:54.889Z,20.63
2019-02-18T22:18:22.380Z,23.93
2019-02-18T22:20:49.923Z,23.60
2019-02-18T22:23:17.365Z,23.47
2019-02-18T22:25:44.884Z,17.50
2019-02-18T22:28:12.501Z,16.10
2019-02-18T22:30:40.407Z,18.27
2019-02-18T22:33:07.872Z,19.73
2019-02-18T22:35:35.568Z,22.50
2019-02-18T22:38:03.074Z,26.30
2019-02-18T22:40:30.549Z,14.53
2019-02-18T22:42:58.024Z,16.20
2019-02-18T22:45:25.539Z,13.93
2019-02-18T22:47:53.127Z,16.73
2019-02-18T22:50:20.690Z,13.70
2019-02-18T22:52:48.158Z,14.33
2019-02-18T22:55:15.599Z,13.90
2019-02-18T22:57:43.042Z,26.63
2019-02-18T23:00:50.120Z,30.87
2019-02-18T23:03:17.570Z,43.07
2019-02-18T23:05:45.090Z,37.87
2019-02-18T23:08:12.629Z,41.73
2019-02-18T23:10:40.159Z,43.47
2019-02-18T23:13:07.665Z,69.20
2019-02-18T23:15:35.339Z,78.30
2019-02-18T23:18:02.888Z,79.10
2019-02-18T23:20:30.366Z,43.63
2019-02-18T23:22:57.833Z,53.30
2019-02-18T23:25:25.207Z,36.20
2019-02-18T23:27:52.636Z,21.93
2019-02-18T23:30:20.129Z,20.13
2019-02-18T23:32:48.099Z,19.53
2019-02-18T23:35:15.654Z,19.23
2019-02-18T23:37:43.061Z,13.17
2019-02-18T23:40:10.480Z,13.40
2019-02-18T23:42:37.900Z,14.10
2019-02-18T23:45:05.344Z,18.17
2019-02-18T23:47:32.697Z,19.40
2019-02-18T23:50:00.303Z,15.10
2019-02-18T23:52:27.803Z,14.27
2019-02-18T23:54:55.224Z,13.37
2019-02-18T23:57:22.714Z,14.80
2019-02-18T23:59:50.170Z,17.83
